Codell, Kansas
Current Conditions -  °F | °C
As of 5:35 AM on Saturday 20 Dec 2014 (Local Time) from KHYS Reporting Station
Clear Clear  
Wind Chill: 19°   Ceiling: Unl
Heat Index: 27°   Visibility: 5mi
Dew Point: 18°   Wind: 7mph
Humidity: 69%   Direction: 220°SW
Pressure: 30.07"   Gusts: NA
Location:  39.2151°N, 99.302°W
Report Text: KHYS 201135Z AUTO 22006KT 5SM CLR M03/M08 A3007 RMK AO1
Loading
Personal Weather Stations






























Interactive Weather Map New forecast layout! Learn more

10-Day Weather Forecast

Advertisements
Track Severe Weather on mobile